createdAt,value
2018-12-24T00:00:23.188Z,0.00
2018-12-24T00:01:23.105Z,0.00
2018-12-24T00:02:23.119Z,0.00
2018-12-24T00:03:23.091Z,0.00
2018-12-24T00:04:23.082Z,0.00
2018-12-24T00:05:23.065Z,0.00
2018-12-24T00:06:23.094Z,0.00
2018-12-24T00:07:23.337Z,0.00
2018-12-24T00:08:23.031Z,0.00
2018-12-24T00:09:23.029Z,0.00
2018-12-24T00:10:23.034Z,0.00
2018-12-24T00:11:22.997Z,0.00
2018-12-24T00:12:22.991Z,0.00
2018-12-24T00:13:23.021Z,0.00
2018-12-24T00:14:22.984Z,0.00
2018-12-24T00:15:22.956Z,0.00
2018-12-24T00:16:22.944Z,0.00
2018-12-24T00:17:23.010Z,0.00
2018-12-24T00:18:22.926Z,0.00
2018-12-24T00:19:22.911Z,0.00
2018-12-24T00:20:22.955Z,0.00
2018-12-24T00:21:22.945Z,0.00
2018-12-24T00:22:22.878Z,0.00
2018-12-24T00:23:22.868Z,0.00
2018-12-24T00:24:22.900Z,0.00
2018-12-24T00:25:22.877Z,0.00
2018-12-24T00:26:22.839Z,0.00
2018-12-24T00:27:22.826Z,0.00
2018-12-24T00:28:22.816Z,0.00
2018-12-24T00:29:22.804Z,0.00
2018-12-24T00:30:22.925Z,0.00
2018-12-24T00:31:22.787Z,0.00
2018-12-24T00:32:22.818Z,0.00
2018-12-24T00:33:22.772Z,0.00
2018-12-24T00:34:22.749Z,0.00
2018-12-24T00:35:22.740Z,0.00
2018-12-24T00:36:22.742Z,0.00
2018-12-24T00:37:22.715Z,0.00
2018-12-24T00:38:22.801Z,0.00
2018-12-24T00:39:22.737Z,0.00
2018-12-24T00:40:22.688Z,0.00
2018-12-24T00:41:22.681Z,0.00
2018-12-24T00:42:22.673Z,0.00
2018-12-24T00:43:22.667Z,0.00
2018-12-24T00:44:22.698Z,0.00
2018-12-24T00:45:22.629Z,0.00
2018-12-24T00:46:22.660Z,0.00
2018-12-24T00:47:22.613Z,0.00
2018-12-24T00:48:22.624Z,0.00
2018-12-24T00:49:22.588Z,0.00
2018-12-24T00:50:22.577Z,0.00
2018-12-24T00:51:22.586Z,0.00
2018-12-24T00:52:22.613Z,0.00
2018-12-24T00:53:22.548Z,0.00
2018-12-24T00:54:22.538Z,0.00
2018-12-24T00:55:22.525Z,0.00
2018-12-24T00:56:22.523Z,0.00
2018-12-24T00:57:22.513Z,0.00
2018-12-24T00:58:22.540Z,0.00
2018-12-24T00:59:22.478Z,0.00
2018-12-24T01:00:22.520Z,0.00
2018-12-24T01:01:22.505Z,0.00
2018-12-24T01:02:22.455Z,0.00
2018-12-24T01:03:22.436Z,0.00
2018-12-24T01:04:22.428Z,0.00
2018-12-24T01:05:22.419Z,0.00
2018-12-24T01:06:22.453Z,0.00
2018-12-24T01:07:22.391Z,0.00
2018-12-24T01:08:22.383Z,0.00
2018-12-24T01:09:22.399Z,0.00
2018-12-24T01:10:22.365Z,0.00
2018-12-24T01:11:22.353Z,0.00
2018-12-24T01:12:24.645Z,0.00
2018-12-24T01:13:22.330Z,0.00
2018-12-24T01:14:22.321Z,0.00
2018-12-24T01:15:22.307Z,0.00
2018-12-24T01:16:22.328Z,0.00
2018-12-24T01:17:22.284Z,0.00
2018-12-24T01:18:22.371Z,0.00
2018-12-24T01:19:22.261Z,0.00
2018-12-24T01:20:22.255Z,0.00
2018-12-24T01:21:22.278Z,0.00
2018-12-24T01:22:22.247Z,0.00
2018-12-24T01:23:22.225Z,0.00
2018-12-24T01:24:22.265Z,0.00
2018-12-24T01:25:22.200Z,0.00
2018-12-24T01:26:22.186Z,0.00
2018-12-24T01:27:22.186Z,0.00
2018-12-24T01:28:22.167Z,0.00
2018-12-24T01:29:22.162Z,0.00
2018-12-24T01:30:22.211Z,0.00
2018-12-24T01:31:22.134Z,0.00
2018-12-24T01:32:22.188Z,0.00
2018-12-24T01:33:22.118Z,0.00
2018-12-24T01:34:22.144Z,0.00
2018-12-24T01:35:22.093Z,0.00
2018-12-24T01:36:22.084Z,0.00
2018-12-24T01:37:22.085Z,0.00
2018-12-24T01:38:22.075Z,0.00
2018-12-24T01:39:22.093Z,0.00
2018-12-24T01:40:22.038Z,0.00
2018-12-24T01:41:22.061Z,0.00
2018-12-24T01:42:22.015Z,0.00
2018-12-24T01:43:22.004Z,0.00
2018-12-24T01:44:22.096Z,0.00
2018-12-24T01:45:21.987Z,0.00
2018-12-24T01:46:21.975Z,0.00
2018-12-24T01:47:21.962Z,0.00
2018-12-24T01:48:21.951Z,0.00
2018-12-24T01:49:21.988Z,0.00
2018-12-24T01:50:21.936Z,0.00
2018-12-24T01:51:21.969Z,0.00
2018-12-24T01:52:21.927Z,0.00
2018-12-24T01:53:21.896Z,0.00
2018-12-24T01:54:21.891Z,0.00
2018-12-24T01:55:21.878Z,0.00
2018-12-24T01:56:21.862Z,0.00
2018-12-24T01:57:21.895Z,0.00
2018-12-24T01:58:21.850Z,0.00
2018-12-24T01:59:21.875Z,0.00
2018-12-24T02:00:21.823Z,0.00
2018-12-24T02:01:21.813Z,0.00
2018-12-24T02:02:21.804Z,0.00
2018-12-24T02:03:21.860Z,0.00
2018-12-24T02:04:21.783Z,0.00
2018-12-24T02:05:21.784Z,0.00
2018-12-24T02:06:21.765Z,0.00
2018-12-24T02:07:21.760Z,0.00
2018-12-24T02:08:21.741Z,0.00
2018-12-24T02:09:21.778Z,0.00
2018-12-24T02:10:21.713Z,0.00
2018-12-24T02:11:21.707Z,0.00
2018-12-24T02:12:21.714Z,0.00
2018-12-24T02:13:21.683Z,0.00
2018-12-24T02:14:21.671Z,0.00
2018-12-24T02:15:21.705Z,0.00
2018-12-24T02:16:21.676Z,0.00
2018-12-24T02:17:21.646Z,0.00
2018-12-24T02:18:21.629Z,0.00
2018-12-24T02:19:21.621Z,0.00
2018-12-24T02:20:21.611Z,0.00
2018-12-24T02:21:21.653Z,0.00
2018-12-24T02:22:21.647Z,0.00
2018-12-24T02:23:21.575Z,0.00
2018-12-24T02:24:21.581Z,0.00
2018-12-24T02:25:21.577Z,0.00
2018-12-24T02:26:21.543Z,0.00
2018-12-24T02:27:21.529Z,0.00
2018-12-24T02:28:21.572Z,0.00
2018-12-24T02:29:21.550Z,0.00
2018-12-24T02:30:21.506Z,0.00
2018-12-24T02:31:21.489Z,0.00
2018-12-24T02:32:21.548Z,0.00
2018-12-24T02:33:21.473Z,0.00
2018-12-24T02:34:21.464Z,0.00
2018-12-24T02:35:21.450Z,0.00
2018-12-24T02:36:21.434Z,0.00
2018-12-24T02:37:21.430Z,0.00
2018-12-24T02:38:21.464Z,0.00
2018-12-24T02:39:21.405Z,0.00
2018-12-24T02:40:21.400Z,0.00
2018-12-24T02:41:21.379Z,0.00
2018-12-24T02:42:21.419Z,0.00
2018-12-24T02:43:21.386Z,0.00
2018-12-24T02:44:21.410Z,0.00
2018-12-24T02:45:21.336Z,0.00
2018-12-24T02:46:21.366Z,0.00
2018-12-24T02:47:21.328Z,0.00
2018-12-24T02:48:21.308Z,0.00
2018-12-24T02:49:21.342Z,0.00
2018-12-24T02:50:21.291Z,0.00
2018-12-24T02:51:21.315Z,0.00
2018-12-24T02:52:21.274Z,0.00
2018-12-24T02:53:21.308Z,0.00
2018-12-24T02:54:21.320Z,0.00
2018-12-24T02:55:21.237Z,0.00
2018-12-24T02:56:21.236Z,0.00
2018-12-24T02:57:21.222Z,0.00
2018-12-24T02:58:21.211Z,0.00
2018-12-24T02:59:21.464Z,0.00
2018-12-24T03:00:21.182Z,0.00
2018-12-24T03:01:21.175Z,0.00
2018-12-24T03:02:21.160Z,0.00
2018-12-24T03:03:21.145Z,0.00
2018-12-24T03:04:21.152Z,0.00
2018-12-24T03:05:21.181Z,0.00
2018-12-24T03:06:21.115Z,0.00
2018-12-24T03:07:21.101Z,0.00
2018-12-24T03:08:21.150Z,0.00
2018-12-24T03:09:21.100Z,0.00
2018-12-24T03:10:21.111Z,0.00
2018-12-24T03:11:21.061Z,0.00
2018-12-24T03:12:21.063Z,0.00
2018-12-24T03:13:21.035Z,0.00
2018-12-24T03:14:21.050Z,0.00
2018-12-24T03:15:21.023Z,0.00
2018-12-24T03:16:21.048Z,0.00
2018-12-24T03:17:21.048Z,0.00
2018-12-24T03:18:20.983Z,0.00
2018-12-24T03:19:21.026Z,0.00
2018-12-24T03:20:20.971Z,0.00
2018-12-24T03:21:20.994Z,0.00
2018-12-24T03:22:20.988Z,0.00
2018-12-24T03:23:20.955Z,0.00
2018-12-24T03:24:20.919Z,0.00
2018-12-24T03:25:20.913Z,0.00
2018-12-24T03:26:20.902Z,0.00
2018-12-24T03:27:20.889Z,0.00
2018-12-24T03:28:20.938Z,0.00
2018-12-24T03:29:20.864Z,0.00
2018-12-24T03:30:20.852Z,0.00
2018-12-24T03:31:20.895Z,0.00
2018-12-24T03:32:20.866Z,0.00
2018-12-24T03:33:20.837Z,0.00
2018-12-24T03:34:20.811Z,0.00
2018-12-24T03:35:20.798Z,0.00
2018-12-24T03:36:20.788Z,0.00
2018-12-24T03:37:20.822Z,0.00
2018-12-24T03:38:20.785Z,0.00
2018-12-24T03:39:20.761Z,0.00
2018-12-24T03:40:20.745Z,0.00
2018-12-24T03:41:20.737Z,0.00
2018-12-24T03:42:20.723Z,0.00
2018-12-24T03:43:20.757Z,0.00
2018-12-24T03:44:20.737Z,0.00
2018-12-24T03:45:20.698Z,0.00
2018-12-24T03:46:20.679Z,0.00
2018-12-24T03:47:20.670Z,0.00
2018-12-24T03:48:20.707Z,0.00
2018-12-24T03:49:20.647Z,0.00
2018-12-24T03:50:20.649Z,0.00
2018-12-24T03:51:20.628Z,0.00
2018-12-24T03:52:20.616Z,0.00
2018-12-24T03:53:20.608Z,0.00
2018-12-24T03:54:20.643Z,0.00
2018-12-24T03:55:20.583Z,0.00
2018-12-24T03:56:20.578Z,0.00
2018-12-24T03:57:20.567Z,0.00
2018-12-24T03:58:20.564Z,0.00
2018-12-24T03:59:20.581Z,0.00
2018-12-24T04:00:20.604Z,0.00
2018-12-24T04:01:20.520Z,0.00
2018-12-24T04:02:20.509Z,0.00
2018-12-24T04:03:20.499Z,0.00
2018-12-24T04:04:20.489Z,0.00
2018-12-24T04:05:20.547Z,0.00
2018-12-24T04:06:20.462Z,0.00
2018-12-24T04:07:20.455Z,0.00
2018-12-24T04:08:20.444Z,0.00
2018-12-24T04:09:20.440Z,0.00
2018-12-24T04:10:20.425Z,0.00
2018-12-24T04:11:20.481Z,0.00
2018-12-24T04:12:20.401Z,0.00
2018-12-24T04:13:22.578Z,0.00
2018-12-24T04:14:20.426Z,0.00
2018-12-24T04:15:20.377Z,0.00
2018-12-24T04:16:20.358Z,0.00
2018-12-24T04:17:20.367Z,0.00
2018-12-24T04:18:20.402Z,0.00
2018-12-24T04:19:20.327Z,0.00
2018-12-24T04:20:20.327Z,0.00
2018-12-24T04:21:22.703Z,0.00
2018-12-24T04:22:20.294Z,0.00
2018-12-24T04:23:20.292Z,0.00
2018-12-24T04:24:20.317Z,0.00
2018-12-24T04:25:20.267Z,0.00
2018-12-24T04:26:20.250Z,0.00
2018-12-24T04:27:20.241Z,0.00
2018-12-24T04:28:20.235Z,0.00
2018-12-24T04:29:20.219Z,0.00
2018-12-24T04:30:20.249Z,0.00
2018-12-24T04:31:20.194Z,0.00
2018-12-24T04:32:20.184Z,0.00
2018-12-24T04:33:20.183Z,0.00
2018-12-24T04:34:20.176Z,0.00
2018-12-24T04:35:20.152Z,0.00
2018-12-24T04:36:20.186Z,0.00
2018-12-24T04:37:20.131Z,0.00
2018-12-24T04:38:20.120Z,0.00
2018-12-24T04:39:20.112Z,0.00
2018-12-24T04:40:20.103Z,0.00
2018-12-24T04:41:20.088Z,0.00
2018-12-24T04:42:20.124Z,0.00
2018-12-24T04:43:20.067Z,0.00
2018-12-24T04:44:20.102Z,0.00
2018-12-24T04:45:20.046Z,0.00
2018-12-24T04:46:20.051Z,0.00
2018-12-24T04:47:20.066Z,0.00
2018-12-24T04:48:20.012Z,0.00
2018-12-24T04:49:20.002Z,0.00
2018-12-24T04:50:19.992Z,0.00
2018-12-24T04:51:19.979Z,0.00
2018-12-24T04:52:19.978Z,0.00
2018-12-24T04:53:20.007Z,0.00
2018-12-24T04:54:19.948Z,0.00
2018-12-24T04:55:19.937Z,0.00
2018-12-24T04:56:19.926Z,0.00
2018-12-24T04:57:19.916Z,0.00
2018-12-24T04:58:19.965Z,0.00
2018-12-24T04:59:19.894Z,0.00
2018-12-24T05:00:19.918Z,0.00
2018-12-24T05:01:19.912Z,0.00
2018-12-24T05:02:19.908Z,0.00
2018-12-24T05:03:19.867Z,0.00
2018-12-24T05:04:19.842Z,0.00
2018-12-24T05:05:19.851Z,0.00
2018-12-24T05:06:19.854Z,0.00
2018-12-24T05:07:19.808Z,0.00
2018-12-24T05:08:19.849Z,0.00
2018-12-24T05:09:19.788Z,0.00
2018-12-24T05:10:19.782Z,0.00
2018-12-24T05:11:19.769Z,0.00
2018-12-24T05:12:19.818Z,0.00
2018-12-24T05:13:19.758Z,0.00
2018-12-24T05:14:19.751Z,0.00
2018-12-24T05:15:19.728Z,0.00
2018-12-24T05:16:19.732Z,0.00
2018-12-24T05:17:19.725Z,0.00
2018-12-24T05:18:19.732Z,0.00
2018-12-24T05:19:19.679Z,0.00
2018-12-24T05:20:19.670Z,0.00
2018-12-24T05:21:19.659Z,0.00
2018-12-24T05:22:19.646Z,0.00
2018-12-24T05:23:19.658Z,0.00
2018-12-24T05:24:19.669Z,0.00
2018-12-24T05:25:19.630Z,0.00
2018-12-24T05:26:19.605Z,0.00
2018-12-24T05:27:19.593Z,0.00
2018-12-24T05:28:19.631Z,0.00
2018-12-24T05:29:19.579Z,0.00
2018-12-24T05:30:19.565Z,0.00
2018-12-24T05:31:19.547Z,0.00
2018-12-24T05:32:19.538Z,0.00
2018-12-24T05:33:19.572Z,0.00
2018-12-24T05:34:19.516Z,0.00
2018-12-24T05:35:19.513Z,0.00
2018-12-24T05:36:19.538Z,0.00
2018-12-24T05:37:19.501Z,0.00
2018-12-24T05:38:19.513Z,0.00
2018-12-24T05:39:19.525Z,0.00
2018-12-24T05:40:19.498Z,0.00
2018-12-24T05:41:19.442Z,0.00
2018-12-24T05:42:19.431Z,0.00
2018-12-24T05:43:19.473Z,0.00
2018-12-24T05:44:19.419Z,0.00
2018-12-24T05:45:19.412Z,0.00
2018-12-24T05:46:19.386Z,0.00
2018-12-24T05:47:19.384Z,0.00
2018-12-24T05:48:19.376Z,0.00
2018-12-24T05:49:19.413Z,0.00
2018-12-24T05:50:19.354Z,0.00
2018-12-24T05:51:19.334Z,0.00
2018-12-24T05:52:19.391Z,0.00
2018-12-24T05:53:19.312Z,0.00
2018-12-24T05:54:19.301Z,0.00
2018-12-24T05:55:19.291Z,0.00
2018-12-24T05:56:19.322Z,0.00
2018-12-24T05:57:19.284Z,0.00
2018-12-24T05:58:19.258Z,0.00
2018-12-24T05:59:19.249Z,0.00
2018-12-24T06:00:19.238Z,0.00
2018-12-24T06:01:19.516Z,0.00
2018-12-24T06:02:19.220Z,0.00
2018-12-24T06:03:19.249Z,0.00
2018-12-24T06:04:19.201Z,0.00
2018-12-24T06:05:19.187Z,0.00
2018-12-24T06:06:19.180Z,0.00
2018-12-24T06:07:19.204Z,0.00
2018-12-24T06:08:19.153Z,0.00
2018-12-24T06:09:19.149Z,0.00
2018-12-24T06:10:19.150Z,0.00
2018-12-24T06:11:19.122Z,0.00
2018-12-24T06:12:19.120Z,0.00
2018-12-24T06:13:19.158Z,0.00
2018-12-24T06:14:19.087Z,0.00
2018-12-24T06:15:19.076Z,0.00
2018-12-24T06:16:19.082Z,0.00
2018-12-24T06:17:19.060Z,0.00
2018-12-24T06:18:19.087Z,0.00
2018-12-24T06:19:19.037Z,0.00
2018-12-24T06:20:19.026Z,0.00
2018-12-24T06:21:19.017Z,0.00
2018-12-24T06:22:19.018Z,0.00
2018-12-24T06:23:19.038Z,0.00
2018-12-24T06:24:18.980Z,0.00
2018-12-24T06:25:18.970Z,0.00
2018-12-24T06:26:18.968Z,0.00
2018-12-24T06:27:18.951Z,0.00
2018-12-24T06:28:18.989Z,0.00
2018-12-24T06:29:18.930Z,0.00
2018-12-24T06:30:18.918Z,0.00
2018-12-24T06:31:18.914Z,0.00
2018-12-24T06:32:19.019Z,0.00
2018-12-24T06:33:18.905Z,0.00
2018-12-24T06:34:18.923Z,0.00
2018-12-24T06:35:18.873Z,0.00
2018-12-24T06:36:18.849Z,0.00
2018-12-24T06:37:18.836Z,0.00
2018-12-24T06:38:18.837Z,0.00
2018-12-24T06:39:18.830Z,0.00
2018-12-24T06:40:18.859Z,0.00
2018-12-24T06:41:18.796Z,0.00
2018-12-24T06:42:18.791Z,0.00
2018-12-24T06:43:18.794Z,0.00
2018-12-24T06:44:18.764Z,0.00
2018-12-24T06:45:18.751Z,0.00
2018-12-24T06:46:18.783Z,0.00
2018-12-24T06:47:18.781Z,0.00
2018-12-24T06:48:18.717Z,0.00
2018-12-24T06:49:18.738Z,0.00
2018-12-24T06:50:18.729Z,0.00
2018-12-24T06:51:18.696Z,0.00
2018-12-24T06:52:18.674Z,0.00
2018-12-24T06:53:18.708Z,0.00
2018-12-24T06:54:18.663Z,0.00
2018-12-24T06:55:18.934Z,0.00
2018-12-24T06:56:18.642Z,0.00
2018-12-24T06:57:18.693Z,0.00
2018-12-24T06:58:18.616Z,0.00
2018-12-24T06:59:18.602Z,0.00
2018-12-24T07:00:18.595Z,0.00
2018-12-24T07:01:18.856Z,0.00
2018-12-24T07:02:18.572Z,0.00
2018-12-24T07:03:18.560Z,0.00
2018-12-24T07:04:18.587Z,0.00
2018-12-24T07:05:18.541Z,4.00
2018-12-24T07:06:18.524Z,4.00
2018-12-24T07:07:18.684Z,4.00
2018-12-24T07:08:18.504Z,0.00
2018-12-24T07:09:18.494Z,4.00
2018-12-24T07:10:18.500Z,4.00
2018-12-24T07:11:18.507Z,8.00
2018-12-24T07:12:18.460Z,8.00
2018-12-24T07:13:18.490Z,8.00
2018-12-24T07:14:18.437Z,8.00
2018-12-24T07:15:18.432Z,8.00
2018-12-24T07:16:18.461Z,12.00
2018-12-24T07:17:18.464Z,12.00
2018-12-24T07:18:18.404Z,16.00
2018-12-24T07:19:18.392Z,20.00
2018-12-24T07:20:18.415Z,24.00
2018-12-24T07:21:18.366Z,28.00
2018-12-24T07:22:18.356Z,28.00
2018-12-24T07:23:18.379Z,36.00
2018-12-24T07:24:18.336Z,36.00
2018-12-24T07:25:18.339Z,36.00
2018-12-24T07:26:18.310Z,32.00
2018-12-24T07:27:18.311Z,40.00
2018-12-24T07:28:18.286Z,44.00
2018-12-24T07:29:18.339Z,52.00
2018-12-24T07:30:18.307Z,72.00
2018-12-24T07:31:18.266Z,88.00
2018-12-24T07:32:18.258Z,92.00
2018-12-24T07:33:18.257Z,100.00
2018-12-24T07:34:18.228Z,104.00
2018-12-24T07:35:18.210Z,96.00
2018-12-24T07:36:18.243Z,84.00
2018-12-24T07:37:18.221Z,80.00
2018-12-24T07:38:18.238Z,92.00
2018-12-24T07:39:18.169Z,104.00
2018-12-24T07:40:18.157Z,112.00
2018-12-24T07:41:18.158Z,148.00
2018-12-24T07:42:18.180Z,156.00
2018-12-24T07:43:18.125Z,160.00
2018-12-24T07:44:24.085Z,148.00
2018-12-24T07:45:19.105Z,140.00
2018-12-24T07:46:18.137Z,144.00
2018-12-24T07:47:18.100Z,176.00
2018-12-24T07:48:18.118Z,212.00
2018-12-24T07:49:18.061Z,260.00
2018-12-24T07:50:18.099Z,288.00
2018-12-24T07:51:18.048Z,308.00
2018-12-24T07:52:18.027Z,312.00
2018-12-24T07:53:18.014Z,288.00
2018-12-24T07:54:18.019Z,272.00
2018-12-24T07:55:17.992Z,240.00
2018-12-24T07:56:18.023Z,228.00
2018-12-24T07:57:18.023Z,232.00
2018-12-24T07:58:17.960Z,304.00
2018-12-24T07:59:17.954Z,252.00
2018-12-24T08:00:17.954Z,228.00
2018-12-24T08:01:17.945Z,280.00
2018-12-24T08:02:17.918Z,376.00
2018-12-24T08:03:17.958Z,420.00
2018-12-24T08:04:17.907Z,496.00
2018-12-24T08:05:17.936Z,548.00
2018-12-24T08:06:17.872Z,600.00
2018-12-24T08:07:17.863Z,616.00
2018-12-24T08:08:17.873Z,608.00
2018-12-24T08:09:17.840Z,588.00
2018-12-24T08:10:17.835Z,600.00
2018-12-24T08:11:17.867Z,636.00
2018-12-24T08:12:17.811Z,648.00
2018-12-24T08:13:17.838Z,672.00
2018-12-24T08:14:17.799Z,644.00
2018-12-24T08:15:17.776Z,636.00
2018-12-24T08:16:17.767Z,624.00
2018-12-24T08:17:17.764Z,568.00
2018-12-24T08:18:17.802Z,552.00
2018-12-24T08:19:17.785Z,572.00
2018-12-24T08:20:17.783Z,596.00
2018-12-24T08:21:18.014Z,596.00
2018-12-24T08:22:17.723Z,616.00
2018-12-24T08:23:17.712Z,612.00
2018-12-24T08:24:17.716Z,580.00
2018-12-24T08:25:17.664Z,592.00
2018-12-24T08:26:17.668Z,600.00
2018-12-24T08:27:17.729Z,580.00
2018-12-24T08:28:17.696Z,648.00
2018-12-24T08:29:17.625Z,672.00
2018-12-24T08:30:17.622Z,728.00
2018-12-24T08:31:17.602Z,760.00
2018-12-24T08:32:17.602Z,740.00
2018-12-24T08:33:17.582Z,748.00
2018-12-24T08:34:17.629Z,788.00
2018-12-24T08:35:17.579Z,840.00
2018-12-24T08:36:17.553Z,928.00
2018-12-24T08:37:17.538Z,1012.00
2018-12-24T08:38:17.547Z,1036.00
2018-12-24T08:39:17.513Z,1048.00
2018-12-24T08:40:17.574Z,1052.00
2018-12-24T08:41:17.500Z,1056.00
2018-12-24T08:42:17.549Z,1060.00
2018-12-24T08:43:17.482Z,1080.00
2018-12-24T08:44:17.460Z,1096.00
2018-12-24T08:45:17.450Z,1116.00
2018-12-24T08:46:17.506Z,1108.00
2018-12-24T08:47:17.438Z,1116.00
2018-12-24T08:48:17.415Z,1116.00
2018-12-24T08:49:17.418Z,1100.00
2018-12-24T08:50:17.400Z,1076.00
2018-12-24T08:51:17.385Z,1036.00
2018-12-24T08:52:17.465Z,1020.00
2018-12-24T08:53:17.368Z,1060.00
2018-12-24T08:54:17.363Z,1084.00
2018-12-24T08:55:17.365Z,1068.00
2018-12-24T08:56:17.350Z,1056.00
2018-12-24T08:57:17.322Z,1084.00
2018-12-24T08:58:17.384Z,1116.00
2018-12-24T08:59:17.299Z,1076.00
2018-12-24T09:00:17.294Z,1016.00
2018-12-24T09:01:17.282Z,980.00
2018-12-24T09:02:17.270Z,936.00
2018-12-24T09:03:17.255Z,836.00
2018-12-24T09:04:17.339Z,796.00
2018-12-24T09:05:17.231Z,864.00
2018-12-24T09:06:17.223Z,812.00
2018-12-24T09:07:17.209Z,700.00
2018-12-24T09:08:17.203Z,584.00
2018-12-24T09:09:18.956Z,492.00
2018-12-24T09:10:17.288Z,472.00
2018-12-24T09:11:17.171Z,484.00
2018-12-24T09:12:17.155Z,388.00
2018-12-24T09:13:17.145Z,388.00
2018-12-24T09:14:17.140Z,476.00
2018-12-24T09:15:17.149Z,540.00
2018-12-24T09:16:17.173Z,780.00
2018-12-24T09:17:17.112Z,920.00
2018-12-24T09:18:17.152Z,992.00
2018-12-24T09:19:17.141Z,1036.00
2018-12-24T09:20:17.069Z,1004.00
2018-12-24T09:21:17.060Z,1204.00
2018-12-24T09:22:17.044Z,1396.00
2018-12-24T09:23:17.060Z,1420.00
2018-12-24T09:24:17.055Z,1412.00
2018-12-24T09:25:17.121Z,1420.00
2018-12-24T09:26:17.075Z,1312.00
2018-12-24T09:27:16.991Z,1232.00
2018-12-24T09:28:16.982Z,1184.00
2018-12-24T09:29:16.983Z,1144.00
2018-12-24T09:30:16.958Z,1104.00
2018-12-24T09:31:17.014Z,1100.00
2018-12-24T09:32:16.972Z,1128.00
2018-12-24T09:33:16.931Z,1168.00
2018-12-24T09:34:16.918Z,1176.00
2018-12-24T09:35:16.920Z,1180.00
2018-12-24T09:36:16.963Z,1240.00
2018-12-24T09:37:16.886Z,1344.00
2018-12-24T09:38:16.873Z,1448.00
2018-12-24T09:39:16.875Z,1516.00
2018-12-24T09:40:16.875Z,1496.00
2018-12-24T09:41:16.849Z,1488.00
2018-12-24T09:42:16.907Z,1520.00
2018-12-24T09:43:16.817Z,1580.00
2018-12-24T09:44:16.805Z,1648.00
2018-12-24T09:45:16.801Z,1756.00
2018-12-24T09:46:16.783Z,1788.00
2018-12-24T09:47:16.781Z,1768.00
2018-12-24T09:48:17.051Z,1728.00
2018-12-24T09:49:16.759Z,1732.00
2018-12-24T09:50:16.738Z,1752.00
2018-12-24T09:51:16.729Z,1684.00
2018-12-24T09:52:16.720Z,1536.00
2018-12-24T09:53:16.706Z,1396.00
2018-12-24T09:54:16.756Z,1304.00
2018-12-24T09:55:16.756Z,1296.00
2018-12-24T09:56:16.680Z,1252.00
2018-12-24T09:57:16.670Z,1156.00
2018-12-24T09:58:16.680Z,1140.00
2018-12-24T09:59:16.643Z,1164.00
2018-12-24T10:00:16.637Z,1196.00
2018-12-24T10:01:16.697Z,1196.00
2018-12-24T10:02:16.616Z,1128.00
2018-12-24T10:03:16.607Z,1060.00
2018-12-24T10:04:16.588Z,1100.00
2018-12-24T10:05:16.578Z,1136.00
2018-12-24T10:06:16.566Z,1100.00
2018-12-24T10:07:16.616Z,1004.00
2018-12-24T10:08:16.557Z,852.00
2018-12-24T10:09:16.549Z,640.00
2018-12-24T10:10:16.522Z,552.00
2018-12-24T10:11:16.578Z,616.00
2018-12-24T10:12:16.507Z,744.00
2018-12-24T10:13:16.492Z,968.00
2018-12-24T10:14:16.486Z,1012.00
2018-12-24T10:15:16.477Z,1000.00
2018-12-24T10:16:16.727Z,1128.00
2018-12-24T10:17:16.451Z,1272.00
2018-12-24T10:18:16.451Z,1468.00
2018-12-24T10:19:16.427Z,1908.00
2018-12-24T10:20:16.424Z,2248.00
2018-12-24T10:21:16.481Z,2280.00
2018-12-24T10:22:16.399Z,2112.00
2018-12-24T10:23:16.381Z,1908.00
2018-12-24T10:24:16.368Z,1780.00
2018-12-24T10:25:16.362Z,1760.00
2018-12-24T10:26:16.352Z,1644.00
2018-12-24T10:27:16.407Z,1588.00
2018-12-24T10:28:16.324Z,1656.00
2018-12-24T10:29:16.313Z,1864.00
2018-12-24T10:30:16.307Z,2084.00
2018-12-24T10:31:16.322Z,2252.00
2018-12-24T10:32:16.284Z,2376.00
2018-12-24T10:33:16.351Z,2372.00
2018-12-24T10:34:16.270Z,2144.00
2018-12-24T10:35:16.264Z,1816.00
2018-12-24T10:36:16.238Z,1468.00
2018-12-24T10:37:16.224Z,1272.00
2018-12-24T10:38:16.286Z,1168.00
2018-12-24T10:39:16.216Z,1168.00
2018-12-24T10:40:16.226Z,1284.00
2018-12-24T10:41:16.183Z,1564.00
2018-12-24T10:42:16.172Z,1892.00
2018-12-24T10:43:16.171Z,1816.00
2018-12-24T10:44:16.247Z,1728.00
2018-12-24T10:45:16.807Z,1856.00
2018-12-24T10:46:16.169Z,1560.00
2018-12-24T10:47:16.123Z,1332.00
2018-12-24T10:48:16.109Z,1196.00
2018-12-24T10:49:16.101Z,1248.00
2018-12-24T10:50:16.125Z,1332.00
2018-12-24T10:51:16.119Z,1484.00
2018-12-24T10:52:16.077Z,1656.00
2018-12-24T10:53:16.049Z,1980.00
2018-12-24T10:54:16.045Z,2400.00
2018-12-24T10:55:16.081Z,2776.00
2018-12-24T10:56:16.069Z,3112.00
2018-12-24T10:57:16.013Z,3364.00
2018-12-24T10:58:15.997Z,3496.00
2018-12-24T10:59:16.140Z,3756.00
2018-12-24T11:00:15.974Z,4024.00
2018-12-24T11:01:15.966Z,4152.00
2018-12-24T11:02:16.017Z,4348.00
2018-12-24T11:03:15.948Z,4392.00
2018-12-24T11:04:15.938Z,4368.00
2018-12-24T11:05:15.922Z,4300.00
2018-12-24T11:06:15.915Z,4304.00
2018-12-24T11:07:15.909Z,4340.00
2018-12-24T11:08:15.948Z,4296.00
2018-12-24T11:09:15.885Z,4336.00
2018-12-24T11:10:15.870Z,4312.00
2018-12-24T11:11:15.858Z,4240.00
2018-12-24T11:12:15.912Z,4164.00
2018-12-24T11:13:15.848Z,4160.00
2018-12-24T11:14:15.848Z,4252.00
2018-12-24T11:15:15.816Z,4424.00
2018-12-24T11:16:15.804Z,4600.00
2018-12-24T11:17:15.791Z,4856.00
2018-12-24T11:18:15.853Z,4976.00
2018-12-24T11:19:15.766Z,4916.00
2018-12-24T11:20:15.760Z,5004.00
2018-12-24T11:21:15.746Z,5048.00
2018-12-24T11:22:15.757Z,5144.00
2018-12-24T11:23:15.780Z,5020.00
2018-12-24T11:24:15.721Z,4840.00
2018-12-24T11:25:15.705Z,4640.00
2018-12-24T11:26:15.693Z,4576.00
2018-12-24T11:27:15.680Z,4812.00
2018-12-24T11:28:15.718Z,4544.00
2018-12-24T11:29:15.688Z,4224.00
2018-12-24T11:30:15.648Z,4016.00
2018-12-24T11:31:15.638Z,3996.00
2018-12-24T11:32:15.636Z,4056.00
2018-12-24T11:33:15.661Z,4168.00
2018-12-24T11:34:15.619Z,4352.00
2018-12-24T11:35:15.594Z,4456.00
2018-12-24T11:36:15.588Z,4348.00
2018-12-24T11:37:15.580Z,4264.00
2018-12-24T11:38:15.561Z,4304.00
2018-12-24T11:39:15.611Z,4276.00
2018-12-24T11:40:15.535Z,4264.00
2018-12-24T11:41:15.537Z,4524.00
2018-12-24T11:42:15.524Z,4216.00
2018-12-24T11:43:15.504Z,4388.00
2018-12-24T11:44:15.554Z,4368.00
2018-12-24T11:45:15.481Z,4072.00
2018-12-24T11:46:15.473Z,4072.00
2018-12-24T11:47:15.460Z,4008.00
2018-12-24T11:48:15.455Z,4060.00
2018-12-24T11:49:15.443Z,4524.00
2018-12-24T11:50:15.723Z,4500.00
2018-12-24T11:51:15.422Z,4544.00
2018-12-24T11:52:15.405Z,4536.00
2018-12-24T11:53:15.391Z,4556.00
2018-12-24T11:54:15.382Z,4560.00
2018-12-24T11:55:15.371Z,4572.00
2018-12-24T11:56:15.413Z,4564.00
2018-12-24T11:57:15.407Z,4564.00
2018-12-24T11:58:16.749Z,4564.00
2018-12-24T11:59:15.333Z,4556.00
2018-12-24T12:00:15.321Z,4568.00
2018-12-24T12:01:15.307Z,4568.00
2018-12-24T12:02:15.296Z,4568.00
2018-12-24T12:03:15.398Z,4564.00
2018-12-24T12:04:15.357Z,4564.00
2018-12-24T12:05:15.264Z,4568.00
2018-12-24T12:06:19.708Z,4564.00
2018-12-24T12:07:15.238Z,4556.00
2018-12-24T12:08:15.232Z,4556.00
2018-12-24T12:09:15.270Z,4544.00
2018-12-24T12:10:15.207Z,4544.00
2018-12-24T12:11:15.208Z,4536.00
2018-12-24T12:12:15.199Z,4528.00
2018-12-24T12:13:15.217Z,4520.00
2018-12-24T12:14:15.167Z,4516.00
2018-12-24T12:15:15.158Z,4508.00
2018-12-24T12:16:15.146Z,4504.00
2018-12-24T12:17:15.160Z,4500.00
2018-12-24T12:18:15.122Z,4508.00
2018-12-24T12:19:15.163Z,4512.00
2018-12-24T12:20:15.097Z,4512.00
2018-12-24T12:21:15.097Z,4500.00
2018-12-24T12:22:15.126Z,4492.00
2018-12-24T12:23:15.080Z,4488.00
2018-12-24T12:24:15.061Z,4476.00
2018-12-24T12:25:15.046Z,4468.00
2018-12-24T12:26:15.044Z,4480.00
2018-12-24T12:27:15.064Z,4492.00
2018-12-24T12:28:17.143Z,4516.00
2018-12-24T12:29:14.999Z,4512.00
2018-12-24T12:30:14.987Z,4528.00
2018-12-24T12:31:14.988Z,4560.00
2018-12-24T12:32:14.978Z,4596.00
2018-12-24T12:33:15.194Z,4660.00
2018-12-24T12:34:14.945Z,4744.00
2018-12-24T12:35:14.943Z,4860.00
2018-12-24T12:36:15.119Z,5048.00
2018-12-24T12:37:14.915Z,5312.00
2018-12-24T12:38:14.917Z,5588.00
2018-12-24T12:39:14.936Z,5712.00
2018-12-24T12:40:14.892Z,5768.00
2018-12-24T12:41:14.872Z,5852.00
2018-12-24T12:42:14.865Z,5832.00
2018-12-24T12:43:15.518Z,5852.00
2018-12-24T12:44:14.837Z,6052.00
2018-12-24T12:45:14.829Z,6312.00
2018-12-24T12:46:14.837Z,6412.00
2018-12-24T12:47:14.821Z,6444.00
2018-12-24T12:48:14.797Z,6636.00
2018-12-24T12:49:15.056Z,6864.00